Minduri, Brazil
Current Conditions -  °F | °C
As of 6:00 PM on Friday 19 Dec 2014 (Local Time) from SBBQ Reporting Station
Few Clouds Few Clouds  
Wind Chill: 81°   Ceiling: Unl
Heat Index: 81°   Visibility: 6mi
Dew Point: 61°   Wind: 6mph
Humidity: 51%   Direction: 70°ENE
Pressure: 29.97"   Gusts: NA
Location:  21.68°S, 44.6°W
Report Text: SBBQ 192000Z 07005KT 9999 FEW035TCU 27/16 Q1015
Loading
Personal Weather Stations






























Interactive Weather Map New forecast layout! Learn more

10-Day Weather Forecast

Advertisements
Track Severe Weather on mobile